EmailTwitter


Observations de surface / Québec / CYUL (71627)

Régions: Québec | Canada | États-Unis | Europe | France | UK | Ailleurs
Station
Affichage
Infos & localisation pour CYUL (71627) | Aide pour décoder les METARs

Observations prises le 2017-11-24 à 14H00 UTC à MONTREAL INTL A, QB (CYUL)

Etat du ciel: couvert.

Température: 3.0 Celsius

Point de rosée: -3.0 Celsius

Humidité relative: 65%

Facteur vent: -1.

Vents: Sud-ouest à 19 km/h ou 10 noeuds.

Pression au niveau moyen de la mer: 101.26 kilopascals.

Calage altimétrique: 101.22 kilopascals ou 29.89 pouces de mercure.

Visibilité horizontale: 15.00 milles terrestres ou 24.00 kilomètres.

Hauteur du plafond: 1524 mètres ( 5000 pieds ).

Observation METAR:

CYUL 241400Z 23010KT 15SM FEW040 OVC050 03/M03 A2989 RMK SC1SC7 SLP126=